Time;durP1;ratioP1;P1;durP2;ratioP2;P2;SDS_P1;SDS_P2;PMS_P1;PMS_P2;Temp;Humidity;BMP_temperature;BMP_pressure;BME280_temperature;BME280_humidity;BME280_pressure;Samples;Min_cycle;Max_cycle;Signal;HPM_P1;HPM_P2
2022/08/28 00:02:17;;;;;;;;;9.00;8.00;;;;;22.80;40.98;100879.41;5081671;27;45494;-64
2022/08/28 00:04:45;;;;;;;;;9.00;9.00;;;;;22.76;40.75;100894.06;5099355;27;45548;-62
2022/08/28 00:07:10;;;;;;;;;9.67;9.33;;;;;22.71;41.49;100887.22;5099024;27;45561;-65
2022/08/28 00:09:47;;;;;;;;;11.00;10.00;;;;;22.67;41.50;100879.53;5099073;27;45426;-62
2022/08/28 00:22:24;;;;;;;;;8.33;8.33;;;;;22.58;41.58;100875.78;5099319;27;45552;-63
2022/08/28 00:25:09;;;;;;;;;8.00;8.00;;;;;22.54;41.86;100866.31;5055171;27;45416;-63
2022/08/28 00:27:56;;;;;;;;;7.00;7.00;;;;;22.52;42.13;100870.94;5062899;27;45545;-62
2022/08/28 00:30:54;;;;;;;;;7.00;7.00;;;;;22.46;42.17;100876.78;5036097;27;45581;-63
2022/08/28 00:33:26;;;;;;;;;7.00;7.00;;;;;22.44;42.28;100874.25;5081221;27;45531;-64
2022/08/28 00:36:01;;;;;;;;;9.67;8.67;;;;;22.45;42.07;100875.09;5099125;27;45429;-63
2022/08/28 00:38:27;;;;;;;;;8.67;8.67;;;;;22.43;42.58;100877.91;5046865;27;45616;-62
2022/08/28 00:41:25;;;;;;;;;7.67;7.67;;;;;22.42;42.41;100881.53;5098728;27;46493;-63
2022/08/28 00:44:25;;;;;;;;;7.00;7.00;;;;;22.41;42.44;100879.84;5081127;27;45610;-62
2022/08/28 00:49:48;;;;;;;;;5.67;5.67;;;;;22.40;42.24;100883.50;5099914;27;45501;-63
2022/08/28 00:52:24;;;;;;;;;8.50;7.50;;;;;22.40;42.42;100877.28;5098379;27;47606;-65
2022/08/28 00:55:03;;;;;;;;;7.33;6.33;;;;;22.39;42.57;100886.31;5064659;27;45842;-64
2022/08/28 00:57:59;;;;;;;;;7.00;7.00;;;;;22.36;42.22;100881.22;5050942;27;45506;-65
2022/08/28 01:00:48;;;;;;;;;7.33;6.33;;;;;22.33;42.30;100881.47;5086171;27;45545;-64
2022/08/28 01:03:32;;;;;;;;;9.00;8.00;;;;;22.31;42.58;100884.25;5086404;27;45480;-63
2022/08/28 01:06:10;;;;;;;;;9.00;7.67;;;;;22.25;42.65;100877.56;5084225;27;45577;-64
2022/08/28 01:12:07;;;;;;;;;8.00;7.00;;;;;22.19;43.11;100883.41;5102675;27;45411;-64
2022/08/28 01:15:09;;;;;;;;;6.33;6.33;;;;;22.13;43.25;100883.00;5065162;27;46044;-64
2022/08/28 01:17:41;;;;;;;;;7.00;7.00;;;;;22.11;43.21;100887.63;5069639;27;45415;-62
2022/08/28 01:20:28;;;;;;;;;8.00;7.00;;;;;22.06;43.12;100885.31;5067833;27;45510;-64
2022/08/28 01:23:33;;;;;;;;;7.00;7.00;;;;;22.00;43.48;100888.47;5082986;27;45608;-63
2022/08/28 01:26:06;;;;;;;;;5.67;5.33;;;;;21.95;43.68;100879.94;5066581;27;45509;-64
2022/08/28 01:29:13;;;;;;;;;6.00;6.00;;;;;21.92;43.75;100881.03;5088401;27;45387;-64
2022/08/28 01:32:04;;;;;;;;;8.00;6.67;;;;;21.86;43.92;100873.47;5067377;27;45509;-64
2022/08/28 01:34:38;;;;;;;;;6.33;6.33;;;;;21.83;43.59;100869.22;5084247;27;45419;-62
2022/08/28 01:37:22;;;;;;;;;7.00;7.00;;;;;21.79;43.81;100866.94;5048807;27;45945;-64
2022/08/28 01:40:01;;;;;;;;;7.00;7.00;;;;;21.75;44.22;100863.63;5066204;27;45561;-62
2022/08/28 01:42:29;;;;;;;;;7.00;6.00;;;;;21.72;44.56;100873.72;5084268;27;45513;-63
2022/08/28 01:45:20;;;;;;;;;5.67;5.67;;;;;21.68;44.36;100865.09;5101091;27;45558;-63
2022/08/28 01:48:08;;;;;;;;;7.33;7.33;;;;;21.67;44.36;100867.88;5048615;27;45628;-62
2022/08/28 01:50:48;;;;;;;;;7.33;6.00;;;;;21.62;44.44;100865.53;5065444;27;45444;-62
2022/08/28 01:53:28;;;;;;;;;7.33;6.00;;;;;21.60;44.78;100859.44;5066834;27;45555;-63
2022/08/28 01:56:05;;;;;;;;;7.67;7.00;;;;;21.61;44.67;100851.31;5049672;27;45489;-62
2022/08/28 02:01:50;;;;;;;;;9.00;8.00;;;;;21.54;45.13;100849.22;5071126;27;45575;-63
2022/08/28 02:04:31;;;;;;;;;5.00;5.00;;;;;21.50;45.03;100863.81;5066140;27;45481;-64
2022/08/28 02:07:06;;;;;;;;;5.00;5.00;;;;;21.48;45.23;100866.59;5032230;27;46054;-63
2022/08/28 02:09:39;;;;;;;;;6.00;6.00;;;;;21.47;45.24;100866.75;5065385;27;45380;-62
2022/08/28 02:12:11;;;;;;;;;7.33;7.33;;;;;21.48;45.25;100868.44;5032282;27;45653;-65
2022/08/28 02:14:53;;;;;;;;;7.00;7.00;;;;;21.47;45.73;100862.25;5030274;27;45479;-63
2022/08/28 02:17:31;;;;;;;;;8.00;7.33;;;;;21.47;45.49;100861.41;5029871;28;45452;-64
2022/08/28 02:20:10;;;;;;;;;6.00;6.00;;;;;21.51;45.64;100870.88;5031155;27;45471;-64
2022/08/28 02:22:35;;;;;;;;;4.67;4.67;;;;;21.52;45.78;100861.88;5082449;27;45502;-63
2022/08/28 02:25:10;;;;;;;;;6.33;6.33;;;;;21.52;45.76;100865.41;5083191;27;45497;-63
2022/08/28 02:28:08;;;;;;;;;6.00;6.00;;;;;21.51;45.73;100865.53;5082024;27;45503;-62
2022/08/28 02:31:16;;;;;;;;;7.33;7.33;;;;;21.49;45.97;100870.13;5082554;27;48084;-62
2022/08/28 02:34:10;;;;;;;;;7.33;7.33;;;;;21.49;45.88;100864.78;5090828;27;45422;-63
2022/08/28 02:36:40;;;;;;;;;6.67;6.67;;;;;21.49;46.13;100873.66;5100469;27;45492;-62
2022/08/28 02:39:31;;;;;;;;;6.00;6.00;;;;;21.50;46.04;100863.81;5101829;27;45356;-64
2022/08/28 02:42:11;;;;;;;;;6.00;6.00;;;;;21.53;46.28;100863.59;5082694;27;47770;-64
2022/08/28 02:44:53;;;;;;;;;6.33;6.33;;;;;21.53;46.22;100863.59;5011233;28;45393;-64
2022/08/28 02:48:00;;;;;;;;;4.33;4.33;;;;;21.50;45.91;100875.38;4996125;28;45770;-64
2022/08/28 02:50:27;;;;;;;;;5.00;5.00;;;;;21.49;46.36;100872.81;5061906;28;45519;-63
2022/08/28 02:53:00;;;;;;;;;5.00;5.00;;;;;21.48;46.22;100871.13;5079942;28;46096;-64
2022/08/28 02:55:51;;;;;;;;;4.67;4.00;;;;;21.45;46.11;100860.66;5080234;28;45339;-64
2022/08/28 02:58:31;;;;;;;;;5.00;5.00;;;;;21.47;46.39;100864.06;5011597;28;45623;-62
2022/08/28 03:01:24;;;;;;;;;7.00;7.00;;;;;21.45;46.31;100858.81;5045215;28;45419;-62
2022/08/28 03:04:02;;;;;;;;;7.00;7.00;;;;;21.44;46.70;100865.16;5044242;28;45565;-63
2022/08/28 03:06:43;;;;;;;;;7.00;7.00;;;;;21.42;46.70;100863.56;5061569;28;45615;-62
2022/08/28 03:09:22;;;;;;;;;6.00;6.00;;;;;21.40;46.17;100866.34;5019563;28;44850;-62
2022/08/28 03:15:00;;;;;;;;;6.67;6.67;;;;;21.29;46.87;100859.09;5079794;28;45714;-63
2022/08/28 03:17:35;;;;;;;;;7.00;7.00;;;;;21.28;46.95;100854.75;5079846;28;45512;-64
2022/08/28 03:20:08;;;;;;;;;5.33;5.33;;;;;21.27;47.17;100860.19;5027826;28;45570;-62
2022/08/28 03:25:31;;;;;;;;;6.67;6.00;;;;;21.23;47.37;100862.25;5078707;28;45872;-63
2022/08/28 03:28:06;;;;;;;;;7.00;7.00;;;;;21.27;47.15;100863.72;4995136;28;45536;-63
2022/08/28 03:30:35;;;;;;;;;7.33;5.67;;;;;21.25;47.38;100864.81;5079759;28;45506;-62
2022/08/28 03:33:30;;;;;;;;;7.67;7.67;;;;;21.24;47.20;100869.31;5042511;28;45517;-62
2022/08/28 03:42:50;;;;;;;;;6.00;6.00;;;;;21.16;47.36;100864.53;5081361;28;45443;-63
2022/08/28 03:45:42;;;;;;;;;5.67;5.33;;;;;21.12;47.68;100865.75;5080984;28;45344;-63
2022/08/28 03:48:44;;;;;;;;;6.00;6.00;;;;;21.12;47.12;100867.56;5068484;28;45428;-64
2022/08/28 03:57:50;;;;;;;;;8.00;7.00;;;;;21.03;47.95;100861.06;5080499;28;45470;-64
2022/08/28 04:00:19;;;;;;;;;5.00;5.00;;;;;21.01;48.06;100857.69;5032489;28;47816;-64
2022/08/28 04:07:00;;;;;;;;;4.00;4.00;;;;;20.96;48.07;100873.22;5078104;28;45478;-63
2022/08/28 04:09:47;;;;;;;;;6.67;6.67;;;;;20.94;48.27;100875.16;5079273;28;45576;-64
2022/08/28 04:12:24;;;;;;;;;8.00;6.67;;;;;20.91;48.17;100880.72;5042654;28;46236;-63
2022/08/28 04:15:03;;;;;;;;;5.00;5.00;;;;;20.85;48.30;100881.19;5026945;28;45500;-64
2022/08/28 04:17:46;;;;;;;;;8.33;8.00;;;;;20.76;48.60;100872.00;5061587;28;45578;-64
2022/08/28 04:20:30;;;;;;;;;7.33;6.33;;;;;20.71;49.10;100872.38;5027128;28;45512;-64
2022/08/28 04:25:54;;;;;;;;;6.67;6.67;;;;;20.59;48.97;100885.75;5080151;28;45480;-63
2022/08/28 04:28:26;;;;;;;;;7.33;6.00;;;;;20.58;48.92;100878.69;5061205;28;45479;-64
2022/08/28 04:31:28;;;;;;;;;7.00;7.00;;;;;20.55;49.33;100882.44;5014195;28;45519;-63
2022/08/28 04:34:24;;;;;;;;;6.67;6.33;;;;;20.55;49.18;100876.25;5063874;28;45593;-62
2022/08/28 04:37:04;;;;;;;;;6.33;6.33;;;;;20.58;48.97;100884.03;5036259;28;45527;-61
2022/08/28 04:39:43;;;;;;;;;7.00;6.67;;;;;20.58;49.03;100881.38;5064099;28;45335;-64
2022/08/28 04:42:20;;;;;;;;;8.67;8.67;;;;;20.54;49.33;100880.75;5076189;28;45471;-64
2022/08/28 04:44:53;;;;;;;;;6.33;6.33;;;;;20.52;49.46;100894.19;5007716;27;46195;-63
2022/08/28 04:47:26;;;;;;;;;7.67;6.67;;;;;20.49;49.75;100889.06;5049680;27;45538;-62
2022/08/28 04:55:51;;;;;;;;;8.67;8.67;;;;;20.40;49.79;100903.09;5096255;27;45568;-63
2022/08/28 04:58:27;;;;;;;;;7.67;7.67;;;;;20.39;50.44;100906.75;5084723;27;45455;-64
2022/08/28 05:04:11;;;;;;;;;7.33;7.33;;;;;20.39;49.77;100914.75;5103244;27;45455;-62
2022/08/28 05:06:42;;;;;;;;;7.33;7.00;;;;;20.39;50.20;100908.53;5066343;27;46883;-64
2022/08/28 05:21:00;;;;;;;;;6.67;6.00;;;;;20.40;50.34;100923.63;5071856;27;45487;-62
2022/08/28 05:23:56;;;;;;;;;8.00;8.00;;;;;20.40;50.23;100923.63;5084476;27;45497;-61
2022/08/28 05:26:42;;;;;;;;;7.33;5.33;;;;;20.38;50.11;100930.88;5101437;27;45557;-64
2022/08/28 05:32:11;;;;;;;;;6.00;6.00;;;;;20.35;50.79;100934.63;5101590;27;45418;-64
2022/08/28 05:48:48;;;;;;;;;8.67;7.67;;;;;20.32;50.27;100940.19;4885487;27;46631;-64
2022/08/28 05:51:33;;;;;;;;;7.33;6.33;;;;;20.32;51.12;100940.19;5081513;28;45379;-62
2022/08/28 05:54:28;;;;;;;;;10.33;7.33;;;;;20.35;50.89;100947.97;5079691;28;46169;-64
2022/08/28 05:59:52;;;;;;;;;7.00;5.67;;;;;20.32;51.21;100944.69;5080269;28;45427;-62
2022/08/28 06:02:39;;;;;;;;;6.67;5.33;;;;;20.30;51.35;100948.28;5081727;28;45506;-64
2022/08/28 06:05:15;;;;;;;;;8.33;8.00;;;;;20.31;51.54;100949.16;5073397;28;45426;-63
2022/08/28 06:08:05;;;;;;;;;6.33;6.33;;;;;20.32;51.23;100945.53;5081275;28;45406;-63
2022/08/28 06:11:07;;;;;;;;;6.00;6.00;;;;;20.36;51.63;100946.16;5065145;28;45623;-63
2022/08/28 06:13:42;;;;;;;;;6.33;6.33;;;;;20.36;51.36;100935.47;5063327;28;45583;-64
2022/08/28 06:16:28;;;;;;;;;9.33;9.33;;;;;20.35;50.95;100947.13;5011145;28;45630;-65
2022/08/28 06:19:08;;;;;;;;;6.67;6.67;;;;;20.38;51.05;100946.91;5081183;28;45562;-66
2022/08/28 06:21:43;;;;;;;;;5.33;5.33;;;;;20.40;51.53;100945.84;5029794;28;45496;-64
2022/08/28 06:24:27;;;;;;;;;8.67;7.67;;;;;20.40;51.56;100947.66;5063749;28;45485;-65
2022/08/28 06:27:16;;;;;;;;;9.33;7.00;;;;;20.43;50.97;100950.94;5076190;28;45532;-63
2022/08/28 06:29:50;;;;;;;;;8.33;5.67;;;;;20.43;51.20;100948.28;5062597;28;45530;-65
2022/08/28 06:35:14;;;;;;;;;5.67;5.67;;;;;20.46;51.67;100953.41;5081405;28;45603;-62
2022/08/28 06:38:07;;;;;;;;;6.00;6.00;;;;;20.44;51.23;100952.66;5061972;28;45463;-62
2022/08/28 06:40:58;;;;;;;;;9.00;8.00;;;;;20.46;51.53;100955.22;5039431;28;45548;-63
2022/08/28 06:43:35;;;;;;;;;10.00;10.00;;;;;20.50;51.66;100956.72;5079760;28;45556;-62
2022/08/28 06:46:05;;;;;;;;;10.00;8.00;;;;;20.50;50.94;100962.94;5063007;28;45459;-65
2022/08/28 06:48:30;;;;;;;;;7.00;7.00;;;;;20.46;51.59;100958.75;5061440;28;46338;-64
2022/08/28 06:59:44;;;;;;;;;6.00;6.00;;;;;20.51;51.52;100969.97;5035326;28;45447;-63
2022/08/28 07:02:21;;;;;;;;;7.00;6.00;;;;;20.52;51.30;100963.69;5062290;28;45524;-63
2022/08/28 07:05:09;;;;;;;;;8.00;7.67;;;;;20.53;51.87;100959.19;5044768;28;45451;-62
2022/08/28 07:11:04;;;;;;;;;8.00;7.00;;;;;20.58;51.56;100951.72;5044182;28;45573;-64
2022/08/28 07:13:41;;;;;;;;;7.67;6.67;;;;;20.61;51.52;100964.00;5027914;28;45535;-62
2022/08/28 07:16:13;;;;;;;;;6.33;6.33;;;;;20.63;50.95;100964.72;5062083;28;45480;-63
2022/08/28 07:18:47;;;;;;;;;6.00;6.00;;;;;20.64;51.61;100963.78;5027938;28;45618;-64
2022/08/28 07:21:25;;;;;;;;;7.00;7.00;;;;;20.64;51.42;100972.66;5062073;28;47000;-62
2022/08/28 07:24:03;;;;;;;;;8.67;8.67;;;;;20.66;51.19;100975.19;5042992;28;45614;-63
2022/08/28 07:26:43;;;;;;;;;5.67;5.67;;;;;20.67;51.39;100976.94;5061287;28;45501;-63
2022/08/28 07:29:37;;;;;;;;;9.00;9.00;;;;;20.66;51.60;100973.41;5014089;28;45569;-61
2022/08/28 07:32:08;;;;;;;;;7.00;7.00;;;;;20.70;51.29;100974.88;5043043;28;45588;-63
2022/08/28 07:34:42;;;;;;;;;7.67;7.67;;;;;20.74;51.79;100970.19;5061938;28;44967;-64
2022/08/28 07:37:23;;;;;;;;;7.00;7.00;;;;;20.78;51.26;100979.69;5027624;28;45501;-66
2022/08/28 07:46:17;;;;;;;;;7.67;7.67;;;;;20.98;50.96;100977.38;5079649;28;45492;-65
2022/08/28 07:48:52;;;;;;;;;7.00;7.00;;;;;21.00;51.07;100975.44;5079513;27;45379;-65
2022/08/28 07:51:27;;;;;;;;;8.33;8.00;;;;;21.01;51.21;100979.81;5027089;28;45646;-64
2022/08/28 07:53:56;;;;;;;;;8.67;8.67;;;;;;;;5079072;28;45895;-63
2022/08/28 07:56:39;;;;;;;;;9.33;8.00;;;;;21.08;50.78;100975.75;5043885;28;45527;-65
2022/08/28 07:59:28;;;;;;;;;8.33;8.33;;;;;21.10;51.11;100981.84;5012818;28;45598;-64
2022/08/28 08:02:20;;;;;;;;;9.00;9.00;;;;;21.12;51.03;100979.91;5071840;28;45486;-65
2022/08/28 08:04:59;;;;;;;;;11.67;9.67;;;;;21.17;50.60;100983.06;5010502;28;45519;-64
2022/08/28 08:07:49;;;;;;;;;9.00;9.00;;;;;21.16;50.72;100979.56;5079229;28;45406;-63
2022/08/28 08:10:41;;;;;;;;;8.33;8.00;;;;;21.16;51.00;100973.34;5060522;28;45808;-65
2022/08/28 08:13:15;;;;;;;;;6.67;6.67;;;;;21.19;51.15;100978.47;5043847;28;45471;-63
2022/08/28 08:16:37;;;;;;;;;9.33;9.00;;;;;21.25;50.92;100980.72;4937386;28;45521;-65
2022/08/28 08:19:14;;;;;;;;;11.00;8.33;;;;;21.28;50.89;100977.81;4938647;28;45554;-65
2022/08/28 08:22:05;;;;;;;;;8.00;8.00;;;;;21.32;51.17;100978.41;4976761;28;45616;-64
2022/08/28 08:25:09;;;;;;;;;8.33;8.33;;;;;21.32;51.32;100984.63;4940401;28;45554;-63
2022/08/28 08:28:02;;;;;;;;;9.33;8.67;;;;;21.39;51.29;100987.75;4943891;28;45667;-64
2022/08/28 08:30:41;;;;;;;;;10.00;10.00;;;;;21.48;51.09;100986.19;4955331;28;45469;-62
2022/08/28 08:33:32;;;;;;;;;8.33;8.33;;;;;21.51;50.62;100988.63;4976384;28;45547;-63
2022/08/28 08:36:33;;;;;;;;;8.00;8.00;;;;;21.51;50.18;100985.97;4928484;28;45660;-63
2022/08/28 08:39:15;;;;;;;;;8.33;7.67;;;;;21.52;50.45;100983.19;4976431;28;45484;-63
2022/08/28 08:42:08;;;;;;;;;9.67;9.00;;;;;21.56;50.74;100984.63;4957575;28;45488;-65
2022/08/28 08:45:15;;;;;;;;;9.67;9.67;;;;;21.59;50.77;100994.25;4956398;28;45461;-64
2022/08/28 08:47:58;;;;;;;;;10.33;10.33;;;;;21.62;50.24;100991.34;4969139;28;45662;-64
2022/08/28 08:50:48;;;;;;;;;9.67;9.67;;;;;21.65;50.14;100996.47;4930790;28;45422;-63
2022/08/28 08:53:56;;;;;;;;;12.00;12.00;;;;;21.73;50.06;100990.53;4971172;28;45533;-64
2022/08/28 08:56:43;;;;;;;;;9.33;8.33;;;;;21.80;49.97;100986.44;4996369;28;45485;-64
2022/08/28 08:59:41;;;;;;;;;15.33;14.67;;;;;21.80;49.72;100979.25;4995784;28;45706;-62
2022/08/28 09:02:44;;;;;;;;;11.33;11.33;;;;;21.85;49.62;100978.91;4966107;28;46471;-63
2022/08/28 09:05:56;;;;;;;;;9.67;9.67;;;;;21.87;49.55;100981.44;4995114;28;45492;-64
2022/08/28 09:08:54;;;;;;;;;12.33;12.33;;;;;21.82;49.47;100982.66;4963540;28;45510;-63
2022/08/28 09:15:39;;;;;;;;;11.00;11.00;;;;;21.87;49.65;100966.25;4995945;28;45590;-65
2022/08/28 09:21:45;;;;;;;;;12.33;11.33;;;;;21.97;49.61;100969.06;4985493;28;45502;-64
2022/08/28 09:24:38;;;;;;;;;14.33;13.00;;;;;22.04;49.95;100975.66;4999649;28;45572;-65
2022/08/28 09:27:37;;;;;;;;;10.00;10.00;;;;;22.10;49.61;100980.53;4982740;28;45619;-64
2022/08/28 09:30:29;;;;;;;;;11.00;11.00;;;;;22.16;49.55;100981.88;4982940;28;45664;-64
2022/08/28 09:33:04;;;;;;;;;15.00;14.00;;;;;22.22;49.08;100978.78;4983018;28;45532;-62
2022/08/28 09:35:50;;;;;;;;;15.33;14.33;;;;;22.23;49.09;100978.63;5038893;28;45551;-65
2022/08/28 09:38:46;;;;;;;;;12.33;12.33;;;;;22.28;48.79;100979.13;5081324;28;45605;-62
2022/08/28 09:44:19;;;;;;;;;13.67;12.00;;;;;22.41;48.85;100972.81;5026362;28;45641;-62
2022/08/28 09:46:49;;;;;;;;;12.33;12.33;;;;;22.44;49.22;100976.09;5047299;28;45608;-63
2022/08/28 09:49:37;;;;;;;;;13.67;12.67;;;;;22.52;48.96;100971.97;5084573;27;45550;-65
2022/08/28 09:52:24;;;;;;;;;14.00;14.00;;;;;22.54;48.59;100970.88;5096810;27;45493;-62
2022/08/28 09:55:05;;;;;;;;;14.00;12.33;;;;;22.57;48.22;100959.88;5101090;27;45437;-63
2022/08/28 09:57:56;;;;;;;;;15.67;14.67;;;;;22.56;48.41;100962.69;5065680;27;45520;-63
2022/08/28 10:00:29;;;;;;;;;13.67;12.67;;;;;22.57;48.71;100956.34;5082100;27;45466;-65
2022/08/28 10:07:02;;;;;;;;;13.00;10.33;;;;;22.59;48.38;100949.03;4984617;28;45571;-63
2022/08/28 10:10:07;;;;;;;;;15.67;15.67;;;;;22.63;47.97;100956.72;4985303;28;45461;-62
2022/08/28 10:13:04;;;;;;;;;11.67;11.67;;;;;22.66;47.89;100956.47;4979372;28;45454;-64
2022/08/28 10:29:49;;;;;;;;;13.75;13.75;;;;;22.93;47.99;100957.88;4968234;28;45600;-64
2022/08/28 10:32:54;;;;;;;;;10.33;10.33;;;;;22.98;47.66;100953.03;4981644;28;45557;-62
2022/08/28 10:36:03;;;;;;;;;15.00;15.00;;;;;23.01;47.54;100954.59;4978873;28;45779;-63
2022/08/28 10:39:22;;;;;;;;;11.75;11.75;;;;;23.06;47.62;100944.34;4960989;28;46263;-63
2022/08/28 10:42:23;;;;;;;;;11.25;11.25;;;;;23.16;47.63;100953.34;4977896;28;45541;-64
2022/08/28 10:45:23;;;;;;;;;11.50;11.50;;;;;23.19;46.81;100942.34;4961017;28;45457;-63
2022/08/28 10:48:16;;;;;;;;;15.00;15.00;;;;;23.27;47.13;100955.16;4961959;28;45719;-64
2022/08/28 10:51:11;;;;;;;;;11.50;10.25;;;;;23.32;47.06;100955.59;4961938;28;45665;-63
2022/08/28 10:54:17;;;;;;;;;10.33;10.33;;;;;23.34;46.67;100948.25;4926839;28;45468;-63
2022/08/28 10:56:51;;;;;;;;;12.50;11.00;;;;;23.33;46.67;100960.00;4940484;28;45510;-65
2022/08/28 10:59:41;;;;;;;;;15.00;14.50;;;;;23.36;46.96;100951.69;4958156;28;45484;-64
2022/08/28 11:02:50;;;;;;;;;11.25;9.50;;;;;23.43;46.76;100957.38;4947467;28;46309;-62
2022/08/28 11:05:52;;;;;;;;;10.50;10.50;;;;;23.50;46.41;100959.41;4936491;28;45556;-64
2022/08/28 11:08:53;;;;;;;;;9.50;9.25;;;;;23.56;46.60;100948.19;5010798;28;45562;-64
2022/08/28 11:12:09;;;;;;;;;12.25;11.50;;;;;23.69;46.56;100942.59;4956040;28;45538;-64
2022/08/28 11:14:53;;;;;;;;;12.00;11.00;;;;;23.74;46.10;100945.78;4982167;28;46477;-65
2022/08/28 11:17:44;;;;;;;;;11.00;11.00;;;;;23.74;46.24;100945.78;4980346;28;45631;-64
2022/08/28 11:20:40;;;;;;;;;11.25;11.25;;;;;23.78;46.26;100949.06;4975536;28;45526;-62
2022/08/28 11:23:40;;;;;;;;;12.25;10.25;;;;;23.78;46.08;100943.69;5067789;28;45432;-64
2022/08/28 11:26:52;;;;;;;;;11.00;9.50;;;;;23.81;45.88;100935.38;5079900;28;45535;-62
2022/08/28 11:30:00;;;;;;;;;10.00;9.50;;;;;23.86;45.71;100940.34;5041104;28;45695;-65
2022/08/28 11:32:58;;;;;;;;;10.75;10.00;;;;;23.94;46.02;100943.25;5061886;28;45472;-62
2022/08/28 11:42:35;;;;;;;;;10.00;10.00;;;;;24.08;45.11;100936.66;5078787;28;45480;-65
2022/08/28 11:45:06;;;;;;;;;12.00;12.00;;;;;24.10;45.13;100935.56;5045445;28;45477;-63
2022/08/28 11:48:07;;;;;;;;;12.75;12.75;;;;;24.15;45.26;100945.88;5061791;28;45477;-64
2022/08/28 11:51:16;;;;;;;;;9.25;9.25;;;;;24.18;44.81;100945.59;5073549;27;48125;-65
2022/08/28 11:54:30;;;;;;;;;8.25;8.25;;;;;24.20;44.67;100947.16;5047007;27;45582;-65
2022/08/28 11:57:47;;;;;;;;;8.00;8.00;;;;;24.30;44.43;100941.00;5000696;28;45609;-64
2022/08/28 12:01:05;;;;;;;;;10.25;9.50;;;;;24.37;43.59;100950.25;4992946;27;45541;-65
2022/08/28 12:04:11;;;;;;;;;9.00;9.00;;;;;24.60;43.49;100946.38;5081920;27;45467;-64
2022/08/28 12:07:25;;;;;;;;;7.50;7.50;;;;;24.74;43.43;100949.69;5081538;27;45517;-64
2022/08/28 12:10:34;;;;;;;;;10.25;8.75;;;;;24.91;43.54;100952.56;5016041;28;45621;-64
2022/08/28 12:13:31;;;;;;;;;9.00;8.25;;;;;24.92;43.04;100953.41;5000513;28;45580;-65
2022/08/28 12:16:11;;;;;;;;;10.00;10.00;;;;;24.86;42.76;100949.44;4956144;28;45581;-64
2022/08/28 12:25:05;;;;;;;;;8.00;7.50;;;;;24.90;43.59;100950.88;5016812;28;45632;-65
2022/08/28 12:27:37;;;;;;;;;9.00;8.00;;;;;25.00;43.06;100940.09;4979624;28;46172;-65
2022/08/28 12:30:09;;;;;;;;;11.50;11.00;;;;;25.10;43.04;100946.34;5016255;28;45448;-64
2022/08/28 12:33:22;;;;;;;;;9.00;9.00;;;;;25.13;42.99;100946.06;5015846;28;45541;-63
2022/08/28 12:36:25;;;;;;;;;9.75;8.00;;;;;25.08;43.23;100942.09;5011761;28;45373;-63
2022/08/28 12:39:02;;;;;;;;;7.75;7.75;;;;;24.94;43.13;100939.84;4999701;28;48003;-62
2022/08/28 12:41:38;;;;;;;;;8.75;8.75;;;;;24.86;43.22;100940.53;4982514;28;45638;-63
2022/08/28 12:47:26;;;;;;;;;9.00;7.75;;;;;25.37;42.11;100935.94;5074362;27;45488;-63
2022/08/28 12:50:20;;;;;;;;;10.75;7.75;;;;;25.35;41.97;100934.22;5079716;27;47089;-65
2022/08/28 12:53:02;;;;;;;;;20.00;16.67;;;;;25.56;42.02;100930.53;5085304;27;45442;-65
2022/08/28 12:55:53;;;;;;;;;35.00;31.67;;;;;25.85;41.59;100925.13;5066262;27;45574;-62
2022/08/28 12:58:47;;;;;;;;;14.75;13.75;;;;;25.97;41.62;100923.94;5083523;27;45556;-63
2022/08/28 13:05:00;;;;;;;;;9.75;9.75;;;;;25.88;41.27;100926.69;5099127;27;45489;-64
2022/08/28 13:07:33;;;;;;;;;10.75;9.00;;;;;25.82;41.32;100919.13;5101695;27;45500;-65
2022/08/28 13:10:25;;;;;;;;;8.25;8.00;;;;;25.71;41.62;100912.94;5084976;27;45388;-63
2022/08/28 13:13:19;;;;;;;;;46.00;37.00;;;;;25.66;41.66;100920.59;5048456;27;45586;-65
2022/08/28 13:16:08;;;;;;;;;27.67;26.00;;;;;25.76;41.83;100912.47;5088704;27;45466;-65
2022/08/28 13:19:16;;;;;;;;;24.00;20.33;;;;;26.12;41.12;100910.00;5102276;27;45485;-65
2022/08/28 13:22:38;;;;;;;;;10.50;10.50;;;;;26.23;40.95;100912.50;5085125;27;45699;-64
2022/08/28 13:25:47;;;;;;;;;8.75;8.75;;;;;26.27;40.59;100919.28;5087668;27;45499;-63
2022/08/28 13:28:22;;;;;;;;;9.00;8.25;;;;;26.25;40.16;100904.25;5041191;27;45484;-63
2022/08/28 13:30:57;;;;;;;;;10.75;10.75;;;;;26.23;40.41;100905.28;5100602;27;45413;-63
2022/08/28 13:33:35;;;;;;;;;9.00;8.25;;;;;26.25;40.26;100901.56;5101316;27;45364;-65
2022/08/28 13:36:40;;;;;;;;;7.25;7.25;;;;;26.32;40.57;100902.69;5083973;27;47050;-63
2022/08/28 13:39:12;;;;;;;;;9.00;9.00;;;;;26.55;40.06;100905.88;5101471;27;45459;-65
2022/08/28 13:41:50;;;;;;;;;8.75;8.75;;;;;26.73;39.38;100904.03;5084438;27;45521;-65
2022/08/28 13:44:51;;;;;;;;;7.25;7.25;;;;;26.96;39.10;100893.66;5060376;27;45460;-65
2022/08/28 13:47:22;;;;;;;;;7.50;7.50;;;;;27.17;38.79;100890.69;5083842;27;46452;-63
2022/08/28 13:50:18;;;;;;;;;11.00;9.25;;;;;27.34;38.56;100886.25;5083196;27;45679;-66
2022/08/28 13:53:13;;;;;;;;;7.25;7.25;;;;;27.24;38.70;100890.91;5049987;27;45483;-65
2022/08/28 13:59:05;;;;;;;;;10.25;9.00;;;;;26.99;38.81;100884.41;5102079;27;45414;-63
2022/08/28 14:04:27;;;;;;;;;8.25;8.25;;;;;26.81;39.18;100874.47;5101821;27;45437;-64
2022/08/28 14:10:29;;;;;;;;;10.75;8.75;;;;;27.00;39.18;100870.75;5100719;27;45477;-63
2022/08/28 14:13:10;;;;;;;;;10.00;8.25;;;;;27.14;38.47;100868.53;5100614;27;45508;-64
2022/08/28 14:15:51;;;;;;;;;7.75;7.75;;;;;27.10;39.01;100860.69;5098125;27;45478;-61
2022/08/28 14:18:31;;;;;;;;;7.00;7.00;;;;;27.19;38.17;100858.97;5084991;27;45663;-61
2022/08/28 14:21:04;;;;;;;;;10.00;10.00;;;;;27.24;39.07;100869.28;5032728;27;45523;-61
2022/08/28 14:23:39;;;;;;;;;9.00;9.00;;;;;27.36;38.10;100870.75;5082303;27;45592;-63
2022/08/28 14:26:21;;;;;;;;;8.20;8.20;;;;;27.42;38.00;100861.16;5034286;27;45604;-64
2022/08/28 14:29:12;;;;;;;;;7.50;7.50;;;;;27.34;37.84;100859.25;5082042;27;45558;-65
2022/08/28 14:39:05;;;;;;;;;9.25;8.00;;;;;27.07;38.73;100846.69;5099889;27;45472;-64
2022/08/28 14:41:56;;;;;;;;;10.75;8.75;;;;;26.93;38.52;100839.13;5100213;27;45489;-64
2022/08/28 14:44:26;;;;;;;;;7.25;7.25;;;;;26.82;38.44;100832.97;5082498;27;46448;-65
2022/08/28 14:46:53;;;;;;;;;6.40;6.40;;;;;26.76;38.62;100830.00;5064544;27;45687;-65
2022/08/28 14:49:48;;;;;;;;;8.00;8.00;;;;;26.73;38.93;100833.88;5099750;27;45761;-65
2022/08/28 14:52:34;;;;;;;;;6.75;6.75;;;;;26.77;38.94;100823.63;5041047;27;45595;-64
2022/08/28 14:58:18;;;;;;;;;8.75;8.25;;;;;26.72;38.73;100825.94;5100011;27;45518;-64
2022/08/28 15:01:33;;;;;;;;;9.00;9.00;;;;;26.66;38.29;100830.09;5069490;27;45576;-65
2022/08/28 15:04:41;;;;;;;;;7.50;6.00;;;;;26.58;39.20;100832.72;5066133;27;45443;-63
2022/08/28 15:07:16;;;;;;;;;7.00;7.00;;;;;26.55;38.89;100830.34;5022072;27;48151;-66
2022/08/28 15:09:59;;;;;;;;;7.25;7.25;;;;;26.47;39.37;100825.66;5081533;27;45559;-63
2022/08/28 15:12:32;;;;;;;;;8.00;8.00;;;;;26.40;39.51;100835.34;5033491;27;45456;-64
2022/08/28 15:18:09;;;;;;;;;10.50;10.50;;;;;26.29;39.68;100824.78;5099786;27;45509;-65
2022/08/28 15:23:42;;;;;;;;;9.00;9.00;;;;;26.23;40.12;100820.84;5055403;27;45557;-64
2022/08/28 15:26:15;;;;;;;;;8.75;8.75;;;;;26.21;39.78;100826.38;5047631;27;45567;-65
2022/08/28 15:32:21;;;;;;;;;9.25;9.25;;;;;26.22;39.26;100820.00;5054219;27;45553;-64
2022/08/28 15:34:55;;;;;;;;;9.75;9.25;;;;;26.25;39.22;100823.38;5041791;27;45393;-64
2022/08/28 15:37:28;;;;;;;;;8.25;8.25;;;;;26.23;38.90;100820.84;5099408;27;45415;-65
2022/08/28 15:42:53;;;;;;;;;10.00;7.50;;;;;26.23;38.67;100816.28;5099952;27;45529;-65
2022/08/28 15:45:47;;;;;;;;;8.50;8.50;;;;;26.27;38.48;100815.97;5099780;27;45583;-65
2022/08/28 15:48:50;;;;;;;;;10.00;8.75;;;;;26.27;39.03;100818.69;5098242;27;45423;-64
2022/08/28 15:51:31;;;;;;;;;11.00;11.00;;;;;26.27;38.74;100810.59;5030177;28;45510;-63
2022/08/28 15:54:22;;;;;;;;;7.25;7.00;;;;;26.29;38.88;100814.84;5079414;28;46190;-63